Winthrop, Iowa
Current Conditions -  °F | °C
As of 4:15 PM on Wednesday 28 Jan 2015 (Local Time) from KIIB Reporting Station
Scattered Clouds Scattered Clouds  
Wind Chill: 23°   Ceiling: Unl
Heat Index: 34°   Visibility: 10mi
Dew Point: 32°   Wind: 18mph
Humidity: 93%   Direction: 130°SE
Pressure: 29.78"   Gusts: 24mph
Location:  42.47°N, 91.73°W
Report Text: KIIB 282215Z AUTO 13016G21KT 10SM SCT018 01/00 A2978 RMK AO2
Loading
Personal Weather Stations






























Interactive Weather Map New forecast layout! Learn more

10-Day Weather Forecast

Advertisements
Track Severe Weather on mobile